createdAt,value
2018-11-27T00:01:48.927Z,17.80
2018-11-27T00:04:51.993Z,15.80
2018-11-27T00:07:55.095Z,16.03
2018-11-27T00:14:07.655Z,16.80
2018-11-27T00:17:10.776Z,15.83
2018-11-27T00:20:14.362Z,16.03
2018-11-27T00:23:17.424Z,14.97
2018-11-27T00:26:20.505Z,15.67
2018-11-27T00:29:23.579Z,15.67
2018-11-27T00:32:26.676Z,14.80
2018-11-27T00:35:29.739Z,15.10
2018-11-27T00:38:32.816Z,15.90
2018-11-27T00:41:35.875Z,14.37
2018-11-27T00:44:38.947Z,14.23
2018-11-27T00:47:42.839Z,16.40
2018-11-27T00:50:45.915Z,14.97
2018-11-27T00:53:49.004Z,15.03
2018-11-27T00:56:52.084Z,15.03
2018-11-27T00:59:55.156Z,15.17
2018-11-27T01:02:58.219Z,12.83
2018-11-27T01:06:01.302Z,14.80
2018-11-27T01:09:06.615Z,13.27
2018-11-27T01:12:09.723Z,13.77
2018-11-27T01:15:13.611Z,11.77
2018-11-27T01:18:16.728Z,12.80
2018-11-27T01:21:19.806Z,13.10
2018-11-27T01:24:22.880Z,13.37
2018-11-27T01:27:25.944Z,13.23
2018-11-27T01:30:29.032Z,12.23
2018-11-27T01:33:32.097Z,13.27
2018-11-27T01:36:35.175Z,13.03
2018-11-27T01:39:38.272Z,12.97
2018-11-27T01:42:41.361Z,12.27
2018-11-27T01:45:44.452Z,12.73
2018-11-27T01:48:47.508Z,10.53
2018-11-27T01:51:50.608Z,12.63
2018-11-27T01:54:53.659Z,11.73
2018-11-27T01:57:56.731Z,12.20
2018-11-27T02:00:59.812Z,11.83
2018-11-27T02:04:02.878Z,11.27
2018-11-27T02:07:05.952Z,11.13
2018-11-27T02:10:10.408Z,12.10
2018-11-27T02:13:13.466Z,11.03
2018-11-27T02:16:16.564Z,11.10
2018-11-27T02:19:19.632Z,11.77
2018-11-27T02:22:22.720Z,9.73
2018-11-27T02:25:26.856Z,11.07
2018-11-27T02:28:29.907Z,11.00
2018-11-27T02:31:33.053Z,10.30
2018-11-27T02:34:36.136Z,9.83
2018-11-27T02:37:39.239Z,9.90
2018-11-27T02:40:53.268Z,10.40
2018-11-27T02:43:56.453Z,8.80
2018-11-27T02:46:59.540Z,10.73
2018-11-27T02:50:02.636Z,9.77
2018-11-27T02:53:05.729Z,10.37
2018-11-27T02:56:08.803Z,10.17
2018-11-27T02:59:11.896Z,10.33
2018-11-27T03:02:14.968Z,9.63
2018-11-27T03:05:27.462Z,9.73
2018-11-27T03:08:30.525Z,10.90
2018-11-27T03:11:33.641Z,11.87
2018-11-27T03:14:36.740Z,11.60
2018-11-27T03:17:40.130Z,10.63
2018-11-27T03:20:43.232Z,11.43
2018-11-27T03:23:46.300Z,11.73
2018-11-27T03:26:49.399Z,11.30
2018-11-27T03:29:52.492Z,12.20
2018-11-27T03:32:55.688Z,11.50
2018-11-27T03:35:58.675Z,12.17
2018-11-27T03:39:01.745Z,11.93
2018-11-27T03:42:05.064Z,12.53
2018-11-27T03:45:09.605Z,10.90
2018-11-27T03:48:12.704Z,11.43
2018-11-27T03:51:15.781Z,12.70
2018-11-27T03:54:18.927Z,10.83
2018-11-27T03:57:21.992Z,13.03
2018-11-27T04:00:27.549Z,12.17
2018-11-27T04:03:30.632Z,11.83
2018-11-27T04:06:33.728Z,12.50
2018-11-27T04:09:36.806Z,12.67
2018-11-27T04:12:39.924Z,12.07
2018-11-27T04:15:43.017Z,11.43
2018-11-27T04:18:46.093Z,12.17
2018-11-27T04:21:49.212Z,11.37
2018-11-27T04:24:52.313Z,12.23
2018-11-27T04:27:55.402Z,11.37
2018-11-27T04:30:58.512Z,11.43
2018-11-27T04:34:01.572Z,11.47
2018-11-27T04:37:05.020Z,10.97
2018-11-27T04:40:09.536Z,10.87
2018-11-27T04:43:12.656Z,11.30
2018-11-27T04:46:15.721Z,11.97
2018-11-27T04:49:18.829Z,12.60
2018-11-27T04:52:21.904Z,12.33
2018-11-27T04:55:24.988Z,12.50
2018-11-27T04:58:28.093Z,12.93
2018-11-27T05:01:31.192Z,13.00
2018-11-27T05:04:34.267Z,13.10
2018-11-27T05:07:37.388Z,13.10
2018-11-27T05:10:40.476Z,14.70
2018-11-27T05:13:43.561Z,14.20
2018-11-27T05:16:46.653Z,15.37
2018-11-27T05:19:49.780Z,14.37
2018-11-27T05:22:52.859Z,14.23
2018-11-27T05:25:55.949Z,14.80
2018-11-27T05:28:59.052Z,15.97
2018-11-27T05:32:02.120Z,14.83
2018-11-27T05:35:06.267Z,15.00
2018-11-27T05:38:09.345Z,15.53
2018-11-27T05:41:12.463Z,15.03
2018-11-27T05:44:15.535Z,15.13
2018-11-27T05:47:18.658Z,15.03
2018-11-27T05:50:21.717Z,16.67
2018-11-27T05:53:24.792Z,15.33
2018-11-27T05:56:27.896Z,16.07
2018-11-27T05:59:30.992Z,16.80
2018-11-27T06:02:34.065Z,16.27
2018-11-27T06:05:37.184Z,18.90
2018-11-27T06:08:40.243Z,17.20
2018-11-27T06:11:43.375Z,16.70
2018-11-27T06:14:46.470Z,16.57
2018-11-27T06:17:58.771Z,17.17
2018-11-27T06:21:01.872Z,17.57
2018-11-27T06:24:05.526Z,16.53
2018-11-27T06:27:08.576Z,17.90
2018-11-27T06:30:14.739Z,16.47
2018-11-27T06:33:17.827Z,17.87
2018-11-27T06:36:20.908Z,17.10
2018-11-27T06:39:23.993Z,17.23
2018-11-27T06:42:27.107Z,16.63
2018-11-27T06:45:30.176Z,16.50
2018-11-27T06:48:33.252Z,16.93
2018-11-27T06:51:36.368Z,16.90
2018-11-27T06:54:39.436Z,16.50
2018-11-27T06:57:42.620Z,15.63
2018-11-27T07:00:45.685Z,17.43
2018-11-27T07:03:48.784Z,16.17
2018-11-27T07:06:51.851Z,17.07
2018-11-27T07:09:54.944Z,16.80
2018-11-27T07:13:01.720Z,17.83
2018-11-27T07:16:04.884Z,18.20
2018-11-27T07:19:07.945Z,17.70
2018-11-27T07:22:11.132Z,16.53
2018-11-27T07:25:15.020Z,19.07
2018-11-27T07:28:18.127Z,19.67
2018-11-27T07:31:21.191Z,19.03
2018-11-27T07:34:24.296Z,18.20
2018-11-27T07:37:27.359Z,18.93
2018-11-27T07:40:30.507Z,17.97
2018-11-27T07:43:33.628Z,17.97
2018-11-27T07:46:36.687Z,18.20
2018-11-27T07:49:39.811Z,18.23
2018-11-27T07:52:42.937Z,17.30
2018-11-27T07:55:46.145Z,18.47
2018-11-27T07:58:50.212Z,18.00
2018-11-27T08:01:57.146Z,17.07
2018-11-27T08:05:02.252Z,16.93
2018-11-27T08:08:14.167Z,16.07
2018-11-27T08:11:19.343Z,17.37
2018-11-27T08:14:35.639Z,17.40
2018-11-27T08:17:44.696Z,17.47
2018-11-27T08:20:47.789Z,17.80
2018-11-27T08:23:50.859Z,18.07
2018-11-27T08:26:53.983Z,17.07
2018-11-27T08:29:57.060Z,16.60
2018-11-27T08:33:00.191Z,17.17
2018-11-27T08:36:03.499Z,16.87
2018-11-27T08:39:09.255Z,17.83
2018-11-27T08:42:12.941Z,16.93
2018-11-27T08:45:17.063Z,17.57
2018-11-27T08:48:20.131Z,18.13
2018-11-27T08:51:23.217Z,18.00
2018-11-27T08:54:26.304Z,17.43
2018-11-27T08:57:29.388Z,17.47
2018-11-27T09:00:32.463Z,17.77
2018-11-27T09:03:35.596Z,16.77
2018-11-27T09:06:38.708Z,18.50
2018-11-27T09:09:41.807Z,16.87
2018-11-27T09:12:44.893Z,16.10
2018-11-27T09:15:47.984Z,17.10
2018-11-27T09:18:51.091Z,16.50
2018-11-27T09:21:54.176Z,15.33
2018-11-27T09:24:57.661Z,16.13
2018-11-27T09:28:00.763Z,16.30
2018-11-27T09:31:03.863Z,16.93
2018-11-27T09:34:06.960Z,15.30
2018-11-27T09:37:10.072Z,16.23
2018-11-27T09:40:16.547Z,15.50
2018-11-27T09:43:19.612Z,14.70
2018-11-27T09:46:22.724Z,15.83
2018-11-27T09:49:25.827Z,15.33
2018-11-27T09:52:28.940Z,16.03
2018-11-27T09:55:32.013Z,16.30
2018-11-27T09:58:35.389Z,15.80
2018-11-27T10:01:38.447Z,15.50
2018-11-27T10:04:41.580Z,15.83
2018-11-27T10:07:44.665Z,17.40
2018-11-27T10:10:47.780Z,16.83
2018-11-27T10:13:50.893Z,16.70
2018-11-27T10:16:53.997Z,16.43
2018-11-27T10:19:57.092Z,16.60
2018-11-27T10:23:00.185Z,16.97
2018-11-27T10:26:03.299Z,16.23
2018-11-27T10:29:06.383Z,16.03
2018-11-27T10:53:58.704Z,15.17
2018-11-27T10:57:01.780Z,14.63
2018-11-27T11:00:08.939Z,15.83
2018-11-27T11:21:38.810Z,14.17
2018-11-27T11:24:41.940Z,14.87
2018-11-27T12:55:17.475Z,12.90
2018-11-27T12:58:20.601Z,11.87
2018-11-27T13:01:23.679Z,13.73
2018-11-27T13:04:26.790Z,13.03
2018-11-27T13:07:29.869Z,12.73
2018-11-27T13:10:32.997Z,12.30
2018-11-27T13:13:36.107Z,12.93
2018-11-27T13:16:39.179Z,10.70
2018-11-27T13:19:42.268Z,12.63
2018-11-27T13:22:45.564Z,13.23
2018-11-27T13:25:48.656Z,13.20
2018-11-27T13:28:51.737Z,11.80
2018-11-27T13:31:55.220Z,12.13
2018-11-27T13:34:58.319Z,11.97
2018-11-27T13:38:01.423Z,12.10
2018-11-27T13:41:04.664Z,11.23
2018-11-27T13:44:07.751Z,13.37
2018-11-27T13:47:10.864Z,11.67
2018-11-27T13:50:15.614Z,12.83
2018-11-27T13:53:18.722Z,13.33
2018-11-27T13:56:21.797Z,12.77
2018-11-27T13:59:24.917Z,12.03
2018-11-27T14:02:27.991Z,11.50
2018-11-27T14:05:31.096Z,11.07
2018-11-27T14:08:34.231Z,11.67
2018-11-27T14:11:37.361Z,10.97
2018-11-27T14:14:40.452Z,10.87
2018-11-27T14:17:43.679Z,11.20
2018-11-27T14:20:46.772Z,10.57
2018-11-27T14:23:49.872Z,10.17
2018-11-27T14:26:52.984Z,10.60
2018-11-27T14:29:56.120Z,10.73
2018-11-27T14:32:59.203Z,10.23
2018-11-27T14:36:02.304Z,10.57
2018-11-27T14:39:09.013Z,10.03
2018-11-27T14:42:12.140Z,10.63
2018-11-27T14:45:16.241Z,9.43
2018-11-27T14:48:19.369Z,10.90
2018-11-27T14:51:22.439Z,10.23
2018-11-27T14:54:25.548Z,10.07
2018-11-27T14:57:28.635Z,11.13
2018-11-27T15:00:31.855Z,9.87
2018-11-27T15:03:34.940Z,10.30
2018-11-27T15:06:38.056Z,10.23
2018-11-27T15:09:41.207Z,10.10
2018-11-27T15:12:44.307Z,9.67
2018-11-27T15:15:47.392Z,9.83
2018-11-27T15:19:10.452Z,9.60
2018-11-27T15:22:13.536Z,9.60
2018-11-27T15:25:16.652Z,10.00
2018-11-27T15:28:19.736Z,11.07
2018-11-27T15:31:22.856Z,10.47
2018-11-27T15:34:25.933Z,10.50
2018-11-27T15:37:29.027Z,9.93
2018-11-27T15:40:32.132Z,10.13
2018-11-27T15:43:35.260Z,11.03
2018-11-27T15:46:39.360Z,11.00
2018-11-27T15:49:43.374Z,11.20
2018-11-27T15:52:48.345Z,11.50
2018-11-27T15:55:51.916Z,12.23
2018-11-27T15:58:54.998Z,12.27
2018-11-27T16:01:58.107Z,12.03
2018-11-27T16:05:01.228Z,11.30
2018-11-27T16:08:08.006Z,12.23
2018-11-27T16:11:13.508Z,12.60
2018-11-27T16:14:28.713Z,12.63
2018-11-27T16:17:31.851Z,13.87
2018-11-27T16:20:34.972Z,12.60
2018-11-27T16:23:38.048Z,14.00
2018-11-27T16:26:41.171Z,13.33
2018-11-27T16:29:44.283Z,12.97
2018-11-27T16:32:47.359Z,13.30
2018-11-27T16:35:50.439Z,14.13
2018-11-27T16:38:53.535Z,14.77
2018-11-27T16:41:56.636Z,14.83
2018-11-27T16:44:59.771Z,15.07
2018-11-27T16:48:02.863Z,15.67
2018-11-27T16:51:05.940Z,15.33
2018-11-27T16:54:09.028Z,15.70
2018-11-27T16:57:12.100Z,15.37
2018-11-27T17:00:20.451Z,15.10
2018-11-27T17:03:23.523Z,15.90
2018-11-27T17:06:26.623Z,15.10
2018-11-27T17:09:29.692Z,15.67
2018-11-27T17:12:32.833Z,16.20
2018-11-27T17:15:35.911Z,17.03
2018-11-27T17:18:39.003Z,14.50
2018-11-27T17:21:42.072Z,14.80
2018-11-27T17:24:45.227Z,14.87
2018-11-27T17:27:48.752Z,15.43
2018-11-27T17:30:54.256Z,16.00
2018-11-27T17:34:02.407Z,15.33
2018-11-27T17:37:05.864Z,15.60
2018-11-27T17:40:10.645Z,15.37
2018-11-27T17:43:13.727Z,15.27
2018-11-27T17:46:16.828Z,14.93
2018-11-27T17:49:19.912Z,15.17
2018-11-27T17:52:23.030Z,15.47
2018-11-27T17:55:26.100Z,15.93
2018-11-27T17:58:29.201Z,17.07
2018-11-27T18:01:32.945Z,16.87
2018-11-27T18:04:36.047Z,17.77
2018-11-27T18:07:39.116Z,17.17
2018-11-27T18:10:42.255Z,16.10
2018-11-27T18:13:45.303Z,16.53
2018-11-27T18:16:48.412Z,16.73
2018-11-27T18:19:51.488Z,18.90
2018-11-27T18:22:54.584Z,17.97
2018-11-27T18:25:57.718Z,15.97
2018-11-27T18:29:00.936Z,18.87
2018-11-27T18:32:04.023Z,17.67
2018-11-27T18:35:08.725Z,17.20
2018-11-27T18:38:11.835Z,16.50
2018-11-27T18:41:20.601Z,16.93
2018-11-27T18:44:23.747Z,16.17
2018-11-27T18:47:26.849Z,16.70
2018-11-27T18:50:31.581Z,15.47
2018-11-27T18:53:34.675Z,17.20
2018-11-27T18:56:37.874Z,17.33
2018-11-27T18:59:40.964Z,16.20
2018-11-27T19:02:44.124Z,19.43
2018-11-27T19:05:47.233Z,17.37
2018-11-27T19:08:50.368Z,18.30
2018-11-27T19:11:53.578Z,17.50
2018-11-27T19:14:56.712Z,18.33
2018-11-27T19:18:03.669Z,18.87
2018-11-27T19:21:06.796Z,19.37
2018-11-27T19:24:09.925Z,18.17
2018-11-27T19:27:13.083Z,18.87
2018-11-27T19:30:18.059Z,18.83
2018-11-27T19:33:21.180Z,18.43
2018-11-27T19:36:24.279Z,17.40
2018-11-27T19:39:27.407Z,19.20
2018-11-27T19:42:30.664Z,18.40
2018-11-27T19:45:34.272Z,18.20
2018-11-27T19:48:37.356Z,19.00
2018-11-27T19:51:40.488Z,19.03
2018-11-27T19:54:43.583Z,19.87
2018-11-27T19:57:46.860Z,19.67
2018-11-27T20:00:49.960Z,19.47
2018-11-27T20:03:53.267Z,19.10
2018-11-27T20:07:06.264Z,18.83
2018-11-27T20:10:11.804Z,19.23
2018-11-27T20:13:14.940Z,17.53
2018-11-27T20:16:18.069Z,18.87
2018-11-27T20:19:21.199Z,19.63
2018-11-27T20:22:24.258Z,19.70
2018-11-27T20:25:27.355Z,17.83
2018-11-27T20:28:30.467Z,19.13
2018-11-27T20:31:33.564Z,19.33
2018-11-27T20:34:36.682Z,18.90
2018-11-27T20:37:39.779Z,18.63
2018-11-27T20:40:42.944Z,18.23
2018-11-27T20:43:46.229Z,18.00
2018-11-27T20:46:49.340Z,20.13
2018-11-27T20:49:53.678Z,20.20
2018-11-27T20:52:55.533Z,18.80
2018-11-27T20:55:58.627Z,18.73
2018-11-27T20:59:04.744Z,18.50
2018-11-27T21:02:07.848Z,19.43
2018-11-27T21:05:10.955Z,18.33
2018-11-27T21:08:14.258Z,18.30
2018-11-27T21:11:17.340Z,17.37
2018-11-27T21:14:20.451Z,16.73
2018-11-27T21:17:23.554Z,17.17
2018-11-27T21:20:26.628Z,17.60
2018-11-27T21:23:29.730Z,17.77
2018-11-27T21:26:32.801Z,17.63
2018-11-27T21:29:35.924Z,18.37
2018-11-27T21:32:39.048Z,18.33
2018-11-27T21:35:42.151Z,17.47
2018-11-27T21:38:45.279Z,17.73
2018-11-27T21:41:48.370Z,18.87
2018-11-27T21:44:51.506Z,18.00
2018-11-27T21:47:55.614Z,19.13
2018-11-27T21:51:00.737Z,19.17
2018-11-27T21:54:03.836Z,19.03
2018-11-27T21:57:06.956Z,18.83
2018-11-27T22:00:18.465Z,19.53
2018-11-27T22:03:21.608Z,22.07
2018-11-27T22:06:24.764Z,21.13
2018-11-27T22:09:27.883Z,19.73
2018-11-27T22:12:30.979Z,22.03
2018-11-27T22:15:36.379Z,21.23
2018-11-27T22:18:39.484Z,21.47
2018-11-27T22:21:42.667Z,20.30
2018-11-27T22:24:45.840Z,21.10
2018-11-27T22:27:48.938Z,20.43
2018-11-27T22:30:52.047Z,21.30
2018-11-27T22:33:55.119Z,21.40
2018-11-27T22:36:58.237Z,21.67
2018-11-27T22:40:01.320Z,20.63
2018-11-27T22:43:05.234Z,20.90
2018-11-27T22:46:08.313Z,20.03
2018-11-27T22:49:11.429Z,18.90
2018-11-27T22:52:14.523Z,20.73
2018-11-27T22:55:17.608Z,22.23
2018-11-27T22:58:20.700Z,21.40
2018-11-27T23:01:23.831Z,22.87
2018-11-27T23:04:26.946Z,22.13
2018-11-27T23:07:35.611Z,22.67
2018-11-27T23:10:39.787Z,21.93
2018-11-27T23:13:42.878Z,21.20
2018-11-27T23:16:45.981Z,21.30
2018-11-27T23:19:49.103Z,22.07
2018-11-27T23:22:52.211Z,21.30
2018-11-27T23:25:55.292Z,21.73
2018-11-27T23:28:58.392Z,24.23
2018-11-27T23:32:01.472Z,22.03
2018-11-27T23:35:05.344Z,22.10
2018-11-27T23:38:08.431Z,22.90
2018-11-27T23:41:11.503Z,23.77
2018-11-27T23:44:14.619Z,23.30
2018-11-27T23:47:17.701Z,23.23
2018-11-27T23:50:21.782Z,22.00
2018-11-27T23:53:24.877Z,23.87
2018-11-27T23:56:28.012Z,22.30
2018-11-27T23:59:31.127Z,21.83
